sensor_id;sensor_type;location;lat;lon;timestamp;temperature;humidity
25914;DHT22;13718;50.922;5.346;2023-06-26T00:00:11;24.30;93.30
25914;DHT22;13718;50.922;5.346;2023-06-26T00:02:37;24.30;93.40
25914;DHT22;13718;50.922;5.346;2023-06-26T00:05:03;24.20;93.70
25914;DHT22;13718;50.922;5.346;2023-06-26T00:07:30;24.10;94.00
25914;DHT22;13718;50.922;5.346;2023-06-26T00:09:56;24.10;94.40
25914;DHT22;13718;50.922;5.346;2023-06-26T00:12:22;24.10;94.70
25914;DHT22;13718;50.922;5.346;2023-06-26T00:14:47;24.00;94.80
25914;DHT22;13718;50.922;5.346;2023-06-26T00:17:13;24.10;95.10
25914;DHT22;13718;50.922;5.346;2023-06-26T00:19:39;24.10;94.90
25914;DHT22;13718;50.922;5.346;2023-06-26T00:22:04;24.00;95.00
25914;DHT22;13718;50.922;5.346;2023-06-26T00:24:30;24.00;95.20
25914;DHT22;13718;50.922;5.346;2023-06-26T00:26:55;24.00;95.40
25914;DHT22;13718;50.922;5.346;2023-06-26T00:29:21;24.00;95.40
25914;DHT22;13718;50.922;5.346;2023-06-26T00:31:46;24.00;95.50
25914;DHT22;13718;50.922;5.346;2023-06-26T00:34:12;23.90;95.60
25914;DHT22;13718;50.922;5.346;2023-06-26T00:36:37;23.80;95.90
25914;DHT22;13718;50.922;5.346;2023-06-26T00:39:03;23.80;96.30
25914;DHT22;13718;50.922;5.346;2023-06-26T00:41:29;23.80;96.40
25914;DHT22;13718;50.922;5.346;2023-06-26T00:43:54;23.80;96.60
25914;DHT22;13718;50.922;5.346;2023-06-26T00:46:20;23.70;96.80
25914;DHT22;13718;50.922;5.346;2023-06-26T00:48:47;23.80;97.20
25914;DHT22;13718;50.922;5.346;2023-06-26T00:51:13;23.80;96.90
25914;DHT22;13718;50.922;5.346;2023-06-26T00:53:39;23.70;97.10
25914;DHT22;13718;50.922;5.346;2023-06-26T00:56:05;23.70;97.70
25914;DHT22;13718;50.922;5.346;2023-06-26T00:58:32;23.60;97.90
25914;DHT22;13718;50.922;5.346;2023-06-26T01:00:57;23.60;98.20
25914;DHT22;13718;50.922;5.346;2023-06-26T01:03:24;23.50;98.50
25914;DHT22;13718;50.922;5.346;2023-06-26T01:05:52;23.50;98.70
25914;DHT22;13718;50.922;5.346;2023-06-26T01:08:18;23.50;98.70
25914;DHT22;13718;50.922;5.346;2023-06-26T01:10:45;23.40;98.90
25914;DHT22;13718;50.922;5.346;2023-06-26T01:13:14;23.40;99.10
25914;DHT22;13718;50.922;5.346;2023-06-26T01:15:41;23.40;99.20
25914;DHT22;13718;50.922;5.346;2023-06-26T01:18:07;23.40;99.40
25914;DHT22;13718;50.922;5.346;2023-06-26T01:20:38;23.30;99.50
25914;DHT22;13718;50.922;5.346;2023-06-26T01:23:29;23.30;99.80
25914;DHT22;13718;50.922;5.346;2023-06-26T01:28:39;23.20;99.90
25914;DHT22;13718;50.922;5.346;2023-06-26T01:31:07;23.20;99.90
25914;DHT22;13718;50.922;5.346;2023-06-26T01:33:32;23.30;99.90
25914;DHT22;13718;50.922;5.346;2023-06-26T01:35:58;23.20;99.90
25914;DHT22;13718;50.922;5.346;2023-06-26T01:38:24;23.20;99.90
25914;DHT22;13718;50.922;5.346;2023-06-26T01:40:51;23.10;99.90
25914;DHT22;13718;50.922;5.346;2023-06-26T01:48:59;22.90;99.90
25914;DHT22;13718;50.922;5.346;2023-06-26T01:51:41;22.80;99.90
25914;DHT22;13718;50.922;5.346;2023-06-26T01:54:11;22.70;99.90
25914;DHT22;13718;50.922;5.346;2023-06-26T01:56:39;22.70;99.90
25914;DHT22;13718;50.922;5.346;2023-06-26T01:59:06;22.60;99.90
25914;DHT22;13718;50.922;5.346;2023-06-26T02:01:32;22.60;99.90
25914;DHT22;13718;50.922;5.346;2023-06-26T02:03:59;22.70;99.90
25914;DHT22;13718;50.922;5.346;2023-06-26T02:06:25;22.70;99.90
25914;DHT22;13718;50.922;5.346;2023-06-26T02:08:50;22.70;99.90
25914;DHT22;13718;50.922;5.346;2023-06-26T02:11:16;22.70;99.90
25914;DHT22;13718;50.922;5.346;2023-06-26T02:13:41;22.80;99.90
25914;DHT22;13718;50.922;5.346;2023-06-26T02:16:07;22.80;99.90
25914;DHT22;13718;50.922;5.346;2023-06-26T02:18:32;22.70;99.90
25914;DHT22;13718;50.922;5.346;2023-06-26T02:20:58;22.60;99.90
25914;DHT22;13718;50.922;5.346;2023-06-26T02:23:24;22.60;99.90
25914;DHT22;13718;50.922;5.346;2023-06-26T02:25:49;22.50;99.90
25914;DHT22;13718;50.922;5.346;2023-06-26T02:28:15;22.40;99.90
25914;DHT22;13718;50.922;5.346;2023-06-26T02:30:40;22.40;99.90
25914;DHT22;13718;50.922;5.346;2023-06-26T02:33:06;22.30;99.90
25914;DHT22;13718;50.922;5.346;2023-06-26T02:35:31;22.30;99.90
25914;DHT22;13718;50.922;5.346;2023-06-26T02:37:58;22.30;99.90
25914;DHT22;13718;50.922;5.346;2023-06-26T02:40:23;22.30;99.90
25914;DHT22;13718;50.922;5.346;2023-06-26T02:42:49;22.20;99.90
25914;DHT22;13718;50.922;5.346;2023-06-26T02:45:15;22.10;99.90
25914;DHT22;13718;50.922;5.346;2023-06-26T02:47:40;22.00;99.90
25914;DHT22;13718;50.922;5.346;2023-06-26T02:50:06;21.90;99.90
25914;DHT22;13718;50.922;5.346;2023-06-26T02:52:32;21.90;99.90
25914;DHT22;13718;50.922;5.346;2023-06-26T02:54:58;21.90;99.90
25914;DHT22;13718;50.922;5.346;2023-06-26T02:57:23;21.90;99.90
25914;DHT22;13718;50.922;5.346;2023-06-26T02:59:49;21.80;99.90
25914;DHT22;13718;50.922;5.346;2023-06-26T03:02:14;21.80;99.90
25914;DHT22;13718;50.922;5.346;2023-06-26T03:04:40;21.80;99.90
25914;DHT22;13718;50.922;5.346;2023-06-26T03:07:05;21.80;99.90
25914;DHT22;13718;50.922;5.346;2023-06-26T03:09:31;21.90;99.90
25914;DHT22;13718;50.922;5.346;2023-06-26T03:11:56;21.90;99.90
25914;DHT22;13718;50.922;5.346;2023-06-26T03:14:22;21.80;99.90
25914;DHT22;13718;50.922;5.346;2023-06-26T03:16:47;21.80;99.90
25914;DHT22;13718;50.922;5.346;2023-06-26T03:19:13;21.80;99.90
25914;DHT22;13718;50.922;5.346;2023-06-26T03:21:39;21.80;99.90
25914;DHT22;13718;50.922;5.346;2023-06-26T03:24:04;21.70;99.90
25914;DHT22;13718;50.922;5.346;2023-06-26T03:26:30;21.70;99.90
25914;DHT22;13718;50.922;5.346;2023-06-26T03:28:56;21.70;99.90
25914;DHT22;13718;50.922;5.346;2023-06-26T03:31:21;21.60;99.90
25914;DHT22;13718;50.922;5.346;2023-06-26T03:33:47;21.50;99.90
25914;DHT22;13718;50.922;5.346;2023-06-26T03:36:13;21.60;99.90
25914;DHT22;13718;50.922;5.346;2023-06-26T03:38:38;21.60;99.90
25914;DHT22;13718;50.922;5.346;2023-06-26T03:41:04;21.40;99.90
25914;DHT22;13718;50.922;5.346;2023-06-26T03:43:29;21.30;99.90
25914;DHT22;13718;50.922;5.346;2023-06-26T03:45:55;21.30;99.90
25914;DHT22;13718;50.922;5.346;2023-06-26T03:48:20;21.30;99.90
25914;DHT22;13718;50.922;5.346;2023-06-26T03:50:46;21.30;99.90
25914;DHT22;13718;50.922;5.346;2023-06-26T03:53:12;21.20;99.90
25914;DHT22;13718;50.922;5.346;2023-06-26T03:55:37;21.10;99.90
25914;DHT22;13718;50.922;5.346;2023-06-26T03:58:04;21.20;99.90
25914;DHT22;13718;50.922;5.346;2023-06-26T04:00:29;21.10;99.90
25914;DHT22;13718;50.922;5.346;2023-06-26T04:02:55;21.10;99.90
25914;DHT22;13718;50.922;5.346;2023-06-26T04:05:21;21.20;99.90
25914;DHT22;13718;50.922;5.346;2023-06-26T04:07:50;21.30;99.90
25914;DHT22;13718;50.922;5.346;2023-06-26T04:10:16;21.30;99.90
25914;DHT22;13718;50.922;5.346;2023-06-26T04:12:41;21.30;99.90
25914;DHT22;13718;50.922;5.346;2023-06-26T04:15:07;21.30;99.90
25914;DHT22;13718;50.922;5.346;2023-06-26T04:17:33;21.30;99.90
25914;DHT22;13718;50.922;5.346;2023-06-26T04:19:59;21.30;99.90
25914;DHT22;13718;50.922;5.346;2023-06-26T04:22:24;21.20;99.90
25914;DHT22;13718;50.922;5.346;2023-06-26T04:24:51;21.30;99.90
25914;DHT22;13718;50.922;5.346;2023-06-26T04:27:17;21.30;99.90
25914;DHT22;13718;50.922;5.346;2023-06-26T04:29:42;21.30;99.90
25914;DHT22;13718;50.922;5.346;2023-06-26T04:32:08;21.30;99.90
25914;DHT22;13718;50.922;5.346;2023-06-26T04:34:34;21.30;99.90
25914;DHT22;13718;50.922;5.346;2023-06-26T04:37:01;21.40;99.90
25914;DHT22;13718;50.922;5.346;2023-06-26T04:39:29;21.60;99.90
25914;DHT22;13718;50.922;5.346;2023-06-26T04:41:55;21.70;99.90
25914;DHT22;13718;50.922;5.346;2023-06-26T04:44:20;21.70;99.90
25914;DHT22;13718;50.922;5.346;2023-06-26T04:46:46;21.80;99.90
25914;DHT22;13718;50.922;5.346;2023-06-26T04:49:11;21.70;99.90
25914;DHT22;13718;50.922;5.346;2023-06-26T04:51:37;21.80;99.90
25914;DHT22;13718;50.922;5.346;2023-06-26T04:54:10;21.80;99.90
25914;DHT22;13718;50.922;5.346;2023-06-26T04:56:36;21.80;99.90
25914;DHT22;13718;50.922;5.346;2023-06-26T04:59:02;21.80;99.90
25914;DHT22;13718;50.922;5.346;2023-06-26T05:01:29;21.80;99.90
25914;DHT22;13718;50.922;5.346;2023-06-26T05:03:58;21.70;99.90
25914;DHT22;13718;50.922;5.346;2023-06-26T05:06:24;21.80;99.90
25914;DHT22;13718;50.922;5.346;2023-06-26T05:08:49;21.70;99.90
25914;DHT22;13718;50.922;5.346;2023-06-26T05:11:15;21.70;99.90
25914;DHT22;13718;50.922;5.346;2023-06-26T05:13:41;21.90;99.90
25914;DHT22;13718;50.922;5.346;2023-06-26T05:16:08;22.10;99.90
25914;DHT22;13718;50.922;5.346;2023-06-26T05:18:34;22.10;99.90
25914;DHT22;13718;50.922;5.346;2023-06-26T05:21:00;22.10;99.90
25914;DHT22;13718;50.922;5.346;2023-06-26T05:23:27;22.20;99.90
25914;DHT22;13718;50.922;5.346;2023-06-26T05:25:55;22.30;99.90
25914;DHT22;13718;50.922;5.346;2023-06-26T05:28:22;22.40;99.90
25914;DHT22;13718;50.922;5.346;2023-06-26T05:30:50;22.50;99.90
25914;DHT22;13718;50.922;5.346;2023-06-26T05:33:18;22.90;99.90
25914;DHT22;13718;50.922;5.346;2023-06-26T05:35:45;23.90;99.90
25914;DHT22;13718;50.922;5.346;2023-06-26T05:38:12;25.10;99.90
25914;DHT22;13718;50.922;5.346;2023-06-26T05:40:39;26.10;99.90
25914;DHT22;13718;50.922;5.346;2023-06-26T05:43:06;27.00;97.10
25914;DHT22;13718;50.922;5.346;2023-06-26T05:45:32;27.40;94.40
25914;DHT22;13718;50.922;5.346;2023-06-26T05:47:57;27.80;93.40
25914;DHT22;13718;50.922;5.346;2023-06-26T05:50:23;28.10;92.70
25914;DHT22;13718;50.922;5.346;2023-06-26T05:52:49;28.60;90.80
25914;DHT22;13718;50.922;5.346;2023-06-26T05:55:15;28.60;90.30
25914;DHT22;13718;50.922;5.346;2023-06-26T05:57:41;28.40;90.10
25914;DHT22;13718;50.922;5.346;2023-06-26T06:00:08;27.60;90.40
25914;DHT22;13718;50.922;5.346;2023-06-26T06:02:39;26.70;91.30
25914;DHT22;13718;50.922;5.346;2023-06-26T06:05:05;26.10;92.60
25914;DHT22;13718;50.922;5.346;2023-06-26T06:07:32;25.60;93.30
25914;DHT22;13718;50.922;5.346;2023-06-26T06:09:58;25.20;93.90
25914;DHT22;13718;50.922;5.346;2023-06-26T06:12:24;25.10;94.40
25914;DHT22;13718;50.922;5.346;2023-06-26T06:14:50;25.20;94.80
25914;DHT22;13718;50.922;5.346;2023-06-26T06:17:15;25.20;94.30
25914;DHT22;13718;50.922;5.346;2023-06-26T06:19:41;25.80;93.50
25914;DHT22;13718;50.922;5.346;2023-06-26T06:22:06;26.60;92.10
25914;DHT22;13718;50.922;5.346;2023-06-26T06:24:32;27.90;90.20
25914;DHT22;13718;50.922;5.346;2023-06-26T06:26:57;28.80;87.20
25914;DHT22;13718;50.922;5.346;2023-06-26T06:29:23;28.60;85.90
25914;DHT22;13718;50.922;5.346;2023-06-26T06:31:48;27.80;86.50
25914;DHT22;13718;50.922;5.346;2023-06-26T06:34:14;27.20;88.30
25914;DHT22;13718;50.922;5.346;2023-06-26T06:36:39;27.60;88.70
25914;DHT22;13718;50.922;5.346;2023-06-26T06:39:05;28.70;86.10
25914;DHT22;13718;50.922;5.346;2023-06-26T06:41:30;29.90;82.30
25914;DHT22;13718;50.922;5.346;2023-06-26T06:43:56;30.30;79.40
25914;DHT22;13718;50.922;5.346;2023-06-26T06:46:21;30.50;78.20
25914;DHT22;13718;50.922;5.346;2023-06-26T06:48:47;30.90;76.60
25914;DHT22;13718;50.922;5.346;2023-06-26T06:51:13;30.80;75.10
25914;DHT22;13718;50.922;5.346;2023-06-26T06:53:51;30.60;76.00
25914;DHT22;13718;50.922;5.346;2023-06-26T06:56:16;31.50;75.20
25914;DHT22;13718;50.922;5.346;2023-06-26T06:58:42;31.90;73.50
25914;DHT22;13718;50.922;5.346;2023-06-26T07:01:11;32.00;72.10
25914;DHT22;13718;50.922;5.346;2023-06-26T07:03:37;32.80;70.20
25914;DHT22;13718;50.922;5.346;2023-06-26T07:06:02;33.10;68.20
25914;DHT22;13718;50.922;5.346;2023-06-26T07:08:28;33.40;66.70
25914;DHT22;13718;50.922;5.346;2023-06-26T07:10:54;33.70;66.20
25914;DHT22;13718;50.922;5.346;2023-06-26T07:13:22;33.60;65.10
25914;DHT22;13718;50.922;5.346;2023-06-26T07:15:47;33.80;63.90
25914;DHT22;13718;50.922;5.346;2023-06-26T07:18:13;34.10;63.80
25914;DHT22;13718;50.922;5.346;2023-06-26T07:20:39;34.40;62.20
25914;DHT22;13718;50.922;5.346;2023-06-26T07:23:05;34.10;63.00
25914;DHT22;13718;50.922;5.346;2023-06-26T07:25:30;34.50;62.40
25914;DHT22;13718;50.922;5.346;2023-06-26T07:27:56;35.10;61.40
25914;DHT22;13718;50.922;5.346;2023-06-26T07:30:21;35.20;60.60
25914;DHT22;13718;50.922;5.346;2023-06-26T07:32:47;35.60;59.50
25914;DHT22;13718;50.922;5.346;2023-06-26T07:35:12;36.00;57.80
25914;DHT22;13718;50.922;5.346;2023-06-26T07:37:38;36.00;57.80
25914;DHT22;13718;50.922;5.346;2023-06-26T07:40:04;35.40;58.70
25914;DHT22;13718;50.922;5.346;2023-06-26T07:42:30;34.30;59.00
25914;DHT22;13718;50.922;5.346;2023-06-26T07:44:55;34.00;59.60
25914;DHT22;13718;50.922;5.346;2023-06-26T07:47:21;33.70;60.50
25914;DHT22;13718;50.922;5.346;2023-06-26T07:49:46;34.00;60.20
25914;DHT22;13718;50.922;5.346;2023-06-26T07:52:12;34.40;59.90
25914;DHT22;13718;50.922;5.346;2023-06-26T07:54:38;34.70;59.20
25914;DHT22;13718;50.922;5.346;2023-06-26T07:57:05;35.30;58.60
25914;DHT22;13718;50.922;5.346;2023-06-26T07:59:32;35.50;57.30
25914;DHT22;13718;50.922;5.346;2023-06-26T08:01:58;35.30;57.10
25914;DHT22;13718;50.922;5.346;2023-06-26T08:04:26;34.70;57.40
25914;DHT22;13718;50.922;5.346;2023-06-26T08:06:54;34.40;58.30
25914;DHT22;13718;50.922;5.346;2023-06-26T08:09:22;34.80;57.90
25914;DHT22;13718;50.922;5.346;2023-06-26T08:11:48;35.50;57.30
25914;DHT22;13718;50.922;5.346;2023-06-26T08:14:14;35.60;56.10
25914;DHT22;13718;50.922;5.346;2023-06-26T08:16:40;35.80;56.00
25914;DHT22;13718;50.922;5.346;2023-06-26T08:19:07;35.80;56.00
25914;DHT22;13718;50.922;5.346;2023-06-26T08:21:32;35.40;56.00
25914;DHT22;13718;50.922;5.346;2023-06-26T08:23:58;34.00;57.20
25914;DHT22;13718;50.922;5.346;2023-06-26T08:29:45;33.90;59.00
25914;DHT22;13718;50.922;5.346;2023-06-26T08:32:11;34.20;58.50
25914;DHT22;13718;50.922;5.346;2023-06-26T08:34:36;34.40;57.50
25914;DHT22;13718;50.922;5.346;2023-06-26T08:37:02;34.00;57.80
25914;DHT22;13718;50.922;5.346;2023-06-26T08:39:27;34.20;58.10
25914;DHT22;13718;50.922;5.346;2023-06-26T08:41:53;34.50;57.80
25914;DHT22;13718;50.922;5.346;2023-06-26T08:44:19;34.60;57.40
25914;DHT22;13718;50.922;5.346;2023-06-26T08:46:49;34.70;58.10
25914;DHT22;13718;50.922;5.346;2023-06-26T08:55:08;35.10;56.20
25914;DHT22;13718;50.922;5.346;2023-06-26T08:57:34;34.70;58.20
25914;DHT22;13718;50.922;5.346;2023-06-26T09:00:00;35.40;56.90
25914;DHT22;13718;50.922;5.346;2023-06-26T09:02:26;35.80;56.00
25914;DHT22;13718;50.922;5.346;2023-06-26T09:04:52;35.20;56.10
25914;DHT22;13718;50.922;5.346;2023-06-26T09:07:18;34.00;57.60
25914;DHT22;13718;50.922;5.346;2023-06-26T09:09:44;33.30;58.70
25914;DHT22;13718;50.922;5.346;2023-06-26T09:12:09;33.40;58.60
25914;DHT22;13718;50.922;5.346;2023-06-26T09:14:37;34.30;56.90
25914;DHT22;13718;50.922;5.346;2023-06-26T09:17:03;34.50;56.40
25914;DHT22;13718;50.922;5.346;2023-06-26T09:19:29;34.00;56.20
25914;DHT22;13718;50.922;5.346;2023-06-26T09:21:55;34.70;56.50
25914;DHT22;13718;50.922;5.346;2023-06-26T09:24:22;35.90;55.20
25914;DHT22;13718;50.922;5.346;2023-06-26T09:26:48;36.60;53.10
25914;DHT22;13718;50.922;5.346;2023-06-26T09:29:15;35.60;53.00
25914;DHT22;13718;50.922;5.346;2023-06-26T09:31:40;33.90;55.60
25914;DHT22;13718;50.922;5.346;2023-06-26T09:34:06;33.70;57.30
25914;DHT22;13718;50.922;5.346;2023-06-26T09:36:33;34.70;55.50
25914;DHT22;13718;50.922;5.346;2023-06-26T09:39:00;35.00;54.30
25914;DHT22;13718;50.922;5.346;2023-06-26T09:41:26;34.00;55.20
25914;DHT22;13718;50.922;5.346;2023-06-26T09:43:52;32.90;56.40
25914;DHT22;13718;50.922;5.346;2023-06-26T09:46:25;31.90;58.00
25914;DHT22;13718;50.922;5.346;2023-06-26T09:49:18;31.80;59.20
25914;DHT22;13718;50.922;5.346;2023-06-26T09:51:43;31.80;57.90
25914;DHT22;13718;50.922;5.346;2023-06-26T09:54:09;31.00;59.10
25914;DHT22;13718;50.922;5.346;2023-06-26T09:56:35;30.50;60.00
25914;DHT22;13718;50.922;5.346;2023-06-26T09:59:05;29.80;61.30
25914;DHT22;13718;50.922;5.346;2023-06-26T10:01:32;29.50;62.60
25914;DHT22;13718;50.922;5.346;2023-06-26T10:03:58;29.40;61.70
25914;DHT22;13718;50.922;5.346;2023-06-26T10:06:45;28.90;62.30
25914;DHT22;13718;50.922;5.346;2023-06-26T10:09:11;28.40;63.00
25914;DHT22;13718;50.922;5.346;2023-06-26T10:11:48;27.90;64.30
25914;DHT22;13718;50.922;5.346;2023-06-26T10:14:16;27.70;64.00
25914;DHT22;13718;50.922;5.346;2023-06-26T10:16:44;27.70;64.70
25914;DHT22;13718;50.922;5.346;2023-06-26T10:19:13;27.70;64.50
25914;DHT22;13718;50.922;5.346;2023-06-26T10:21:40;28.00;64.80
25914;DHT22;13718;50.922;5.346;2023-06-26T10:24:06;28.10;64.40
25914;DHT22;13718;50.922;5.346;2023-06-26T10:26:36;28.20;64.50
25914;DHT22;13718;50.922;5.346;2023-06-26T10:29:05;28.20;63.10
25914;DHT22;13718;50.922;5.346;2023-06-26T10:31:33;28.30;62.80
25914;DHT22;13718;50.922;5.346;2023-06-26T10:33:59;28.20;62.90
25914;DHT22;13718;50.922;5.346;2023-06-26T10:36:30;27.90;63.40
25914;DHT22;13718;50.922;5.346;2023-06-26T10:38:59;27.70;63.60
25914;DHT22;13718;50.922;5.346;2023-06-26T10:41:27;27.50;64.80
25914;DHT22;13718;50.922;5.346;2023-06-26T10:46:26;27.40;63.90
25914;DHT22;13718;50.922;5.346;2023-06-26T10:48:59;27.50;63.30
25914;DHT22;13718;50.922;5.346;2023-06-26T10:51:26;27.60;63.20
25914;DHT22;13718;50.922;5.346;2023-06-26T10:54:01;27.60;63.00
25914;DHT22;13718;50.922;5.346;2023-06-26T10:59:16;27.40;62.60
25914;DHT22;13718;50.922;5.346;2023-06-26T11:01:42;27.40;60.60
25914;DHT22;13718;50.922;5.346;2023-06-26T11:04:09;27.40;60.40
25914;DHT22;13718;50.922;5.346;2023-06-26T11:06:36;27.40;59.70
25914;DHT22;13718;50.922;5.346;2023-06-26T11:14:18;27.60;58.70
25914;DHT22;13718;50.922;5.346;2023-06-26T11:16:44;27.70;57.70
25914;DHT22;13718;50.922;5.346;2023-06-26T11:19:10;27.80;58.90
25914;DHT22;13718;50.922;5.346;2023-06-26T11:21:40;27.80;59.40
25914;DHT22;13718;50.922;5.346;2023-06-26T11:24:09;27.60;59.70
25914;DHT22;13718;50.922;5.346;2023-06-26T11:26:42;27.50;60.40
25914;DHT22;13718;50.922;5.346;2023-06-26T11:29:09;27.50;59.90
25914;DHT22;13718;50.922;5.346;2023-06-26T11:31:36;27.60;59.70
25914;DHT22;13718;50.922;5.346;2023-06-26T11:34:04;27.80;59.50
25914;DHT22;13718;50.922;5.346;2023-06-26T11:36:31;27.90;58.90
25914;DHT22;13718;50.922;5.346;2023-06-26T11:38:58;27.80;58.80
25914;DHT22;13718;50.922;5.346;2023-06-26T11:41:27;27.70;59.40
25914;DHT22;13718;50.922;5.346;2023-06-26T11:43:53;27.50;58.50
25914;DHT22;13718;50.922;5.346;2023-06-26T11:46:21;27.50;58.90
25914;DHT22;13718;50.922;5.346;2023-06-26T11:48:47;27.50;58.00
25914;DHT22;13718;50.922;5.346;2023-06-26T11:51:13;27.70;58.20
25914;DHT22;13718;50.922;5.346;2023-06-26T11:53:41;27.60;58.80
25914;DHT22;13718;50.922;5.346;2023-06-26T11:56:17;27.70;59.40
25914;DHT22;13718;50.922;5.346;2023-06-26T12:01:42;27.80;59.60
25914;DHT22;13718;50.922;5.346;2023-06-26T12:04:11;27.80;58.80
25914;DHT22;13718;50.922;5.346;2023-06-26T12:06:38;27.60;58.70
25914;DHT22;13718;50.922;5.346;2023-06-26T12:09:09;27.60;59.30
25914;DHT22;13718;50.922;5.346;2023-06-26T12:11:38;27.60;58.70
25914;DHT22;13718;50.922;5.346;2023-06-26T12:14:06;27.70;59.10
25914;DHT22;13718;50.922;5.346;2023-06-26T12:16:33;27.70;59.20
25914;DHT22;13718;50.922;5.346;2023-06-26T12:19:04;27.70;57.10
25914;DHT22;13718;50.922;5.346;2023-06-26T12:24:14;27.70;56.70
25914;DHT22;13718;50.922;5.346;2023-06-26T12:26:43;27.60;58.10
25914;DHT22;13718;50.922;5.346;2023-06-26T12:29:14;27.60;58.80
25914;DHT22;13718;50.922;5.346;2023-06-26T12:31:44;27.70;58.90
25914;DHT22;13718;50.922;5.346;2023-06-26T12:34:12;27.60;57.70
25914;DHT22;13718;50.922;5.346;2023-06-26T12:36:48;27.60;57.60
25914;DHT22;13718;50.922;5.346;2023-06-26T12:39:16;27.50;57.10
25914;DHT22;13718;50.922;5.346;2023-06-26T12:41:49;27.40;58.20
25914;DHT22;13718;50.922;5.346;2023-06-26T12:44:25;27.30;58.10
25914;DHT22;13718;50.922;5.346;2023-06-26T12:46:57;27.20;58.40
25914;DHT22;13718;50.922;5.346;2023-06-26T12:52:01;27.30;58.40
25914;DHT22;13718;50.922;5.346;2023-06-26T12:54:27;27.60;58.80
25914;DHT22;13718;50.922;5.346;2023-06-26T12:56:53;27.70;57.80
25914;DHT22;13718;50.922;5.346;2023-06-26T12:59:19;27.50;57.60
25914;DHT22;13718;50.922;5.346;2023-06-26T13:01:45;27.50;58.00
25914;DHT22;13718;50.922;5.346;2023-06-26T13:04:11;27.40;58.30
25914;DHT22;13718;50.922;5.346;2023-06-26T13:06:36;27.30;57.90
25914;DHT22;13718;50.922;5.346;2023-06-26T13:09:02;27.50;57.70
25914;DHT22;13718;50.922;5.346;2023-06-26T13:11:31;27.70;58.30
25914;DHT22;13718;50.922;5.346;2023-06-26T13:13:57;27.90;58.50
25914;DHT22;13718;50.922;5.346;2023-06-26T13:16:22;27.70;57.40
25914;DHT22;13718;50.922;5.346;2023-06-26T13:18:48;27.50;57.60
25914;DHT22;13718;50.922;5.346;2023-06-26T13:21:14;27.50;58.20
25914;DHT22;13718;50.922;5.346;2023-06-26T13:23:40;27.50;57.60
25914;DHT22;13718;50.922;5.346;2023-06-26T13:26:06;27.40;58.40
25914;DHT22;13718;50.922;5.346;2023-06-26T13:28:32;27.30;57.40
25914;DHT22;13718;50.922;5.346;2023-06-26T13:30:57;27.30;56.80
25914;DHT22;13718;50.922;5.346;2023-06-26T13:33:23;27.30;56.50
25914;DHT22;13718;50.922;5.346;2023-06-26T13:35:52;27.20;57.00
25914;DHT22;13718;50.922;5.346;2023-06-26T13:38:21;27.10;57.40
25914;DHT22;13718;50.922;5.346;2023-06-26T13:40:54;27.00;57.80
25914;DHT22;13718;50.922;5.346;2023-06-26T13:43:21;26.90;57.90
25914;DHT22;13718;50.922;5.346;2023-06-26T13:45:48;27.00;58.10
25914;DHT22;13718;50.922;5.346;2023-06-26T13:48:13;27.00;56.30
25914;DHT22;13718;50.922;5.346;2023-06-26T13:50:39;27.00;56.70
25914;DHT22;13718;50.922;5.346;2023-06-26T13:53:05;27.00;57.10
25914;DHT22;13718;50.922;5.346;2023-06-26T13:55:31;26.90;56.60
25914;DHT22;13718;50.922;5.346;2023-06-26T13:57:58;26.90;56.60
25914;DHT22;13718;50.922;5.346;2023-06-26T14:00:24;26.90;56.60
25914;DHT22;13718;50.922;5.346;2023-06-26T14:02:51;27.10;56.50
25914;DHT22;13718;50.922;5.346;2023-06-26T14:05:17;27.20;56.60
25914;DHT22;13718;50.922;5.346;2023-06-26T14:07:44;27.30;56.40
25914;DHT22;13718;50.922;5.346;2023-06-26T14:10:10;27.40;55.80
25914;DHT22;13718;50.922;5.346;2023-06-26T14:12:35;27.60;56.40
25914;DHT22;13718;50.922;5.346;2023-06-26T14:15:01;27.50;55.80
25914;DHT22;13718;50.922;5.346;2023-06-26T14:17:27;27.40;56.90
25914;DHT22;13718;50.922;5.346;2023-06-26T14:19:53;27.20;56.80
25914;DHT22;13718;50.922;5.346;2023-06-26T14:22:18;27.10;57.40
25914;DHT22;13718;50.922;5.346;2023-06-26T14:24:44;27.00;58.10
25914;DHT22;13718;50.922;5.346;2023-06-26T14:27:10;26.80;57.40
25914;DHT22;13718;50.922;5.346;2023-06-26T14:29:36;26.70;58.10
25914;DHT22;13718;50.922;5.346;2023-06-26T14:32:02;26.70;58.50
25914;DHT22;13718;50.922;5.346;2023-06-26T14:34:28;26.80;58.60
25914;DHT22;13718;50.922;5.346;2023-06-26T14:36:53;26.70;57.70
25914;DHT22;13718;50.922;5.346;2023-06-26T14:39:19;26.70;57.80
25914;DHT22;13718;50.922;5.346;2023-06-26T14:41:45;26.70;58.20
25914;DHT22;13718;50.922;5.346;2023-06-26T14:44:10;26.80;58.60
25914;DHT22;13718;50.922;5.346;2023-06-26T14:46:36;26.90;58.00
25914;DHT22;13718;50.922;5.346;2023-06-26T14:49:03;27.00;57.40
25914;DHT22;13718;50.922;5.346;2023-06-26T14:51:28;27.00;55.90
25914;DHT22;13718;50.922;5.346;2023-06-26T14:53:54;27.10;56.60
25914;DHT22;13718;50.922;5.346;2023-06-26T14:56:19;27.00;55.80
25914;DHT22;13718;50.922;5.346;2023-06-26T14:58:46;27.00;56.10
25914;DHT22;13718;50.922;5.346;2023-06-26T15:01:14;27.10;56.00
25914;DHT22;13718;50.922;5.346;2023-06-26T15:03:48;27.30;55.50
25914;DHT22;13718;50.922;5.346;2023-06-26T15:06:13;27.30;55.50
25914;DHT22;13718;50.922;5.346;2023-06-26T15:08:39;27.30;55.60
25914;DHT22;13718;50.922;5.346;2023-06-26T15:11:05;27.40;56.30
25914;DHT22;13718;50.922;5.346;2023-06-26T15:13:30;27.40;56.60
25914;DHT22;13718;50.922;5.346;2023-06-26T15:15:56;27.40;57.00
25914;DHT22;13718;50.922;5.346;2023-06-26T15:18:21;27.50;56.40
25914;DHT22;13718;50.922;5.346;2023-06-26T15:20:47;27.30;56.40
25914;DHT22;13718;50.922;5.346;2023-06-26T15:23:12;27.30;56.50
25914;DHT22;13718;50.922;5.346;2023-06-26T15:25:38;27.30;56.90
25914;DHT22;13718;50.922;5.346;2023-06-26T15:28:07;27.20;57.10
25914;DHT22;13718;50.922;5.346;2023-06-26T15:30:33;27.10;57.20
25914;DHT22;13718;50.922;5.346;2023-06-26T15:32:59;27.00;56.90
25914;DHT22;13718;50.922;5.346;2023-06-26T15:35:25;26.90;57.10
25914;DHT22;13718;50.922;5.346;2023-06-26T15:37:50;26.80;58.00
25914;DHT22;13718;50.922;5.346;2023-06-26T15:40:16;26.80;57.80
25914;DHT22;13718;50.922;5.346;2023-06-26T15:42:49;26.70;58.20
25914;DHT22;13718;50.922;5.346;2023-06-26T15:45:15;26.70;58.00
25914;DHT22;13718;50.922;5.346;2023-06-26T15:47:43;26.60;57.50
25914;DHT22;13718;50.922;5.346;2023-06-26T15:50:10;26.60;57.10
25914;DHT22;13718;50.922;5.346;2023-06-26T15:52:37;26.50;56.90
25914;DHT22;13718;50.922;5.346;2023-06-26T15:55:03;26.30;57.80
25914;DHT22;13718;50.922;5.346;2023-06-26T15:57:31;26.30;57.90
25914;DHT22;13718;50.922;5.346;2023-06-26T15:59:56;26.20;58.10
25914;DHT22;13718;50.922;5.346;2023-06-26T16:02:22;26.20;57.60